Time;durP1;ratioP1;P1;durP2;ratioP2;P2;SDS_P1;SDS_P2;PMS_P1;PMS_P2;Temp;Humidity;BMP_temperature;BMP_pressure;BME280_temperature;BME280_humidity;BME280_pressure;Samples;Min_cycle;Max_cycle;Signal;HPM_P1;HPM_P2
2022/11/13 00:02:08;;;;;;;7.53;3.92;;;;;;;5.12;100.00;102633.31;6222038;28;20057;-73
2022/11/13 00:05:10;;;;;;;9.00;4.15;;;;;;;5.09;100.00;102631.59;6222179;28;20054;-75
2022/11/13 00:08:11;;;;;;;11.32;4.43;;;;;;;5.08;100.00;102629.84;6222228;28;20525;-74
2022/11/13 00:11:17;;;;;;;10.45;4.35;;;;;;;5.06;100.00;102622.03;6221813;28;20061;-75
2022/11/13 00:14:18;;;;;;;11.73;4.45;;;;;;;5.03;100.00;102619.41;6221759;28;20055;-75
2022/11/13 00:17:20;;;;;;;7.35;4.03;;;;;;;5.00;100.00;102614.22;6221980;28;20061;-74
2022/11/13 00:20:21;;;;;;;8.48;3.83;;;;;;;5.01;100.00;102613.34;6221523;28;20498;-73
2022/11/13 00:23:22;;;;;;;9.18;4.60;;;;;;;5.00;100.00;102611.63;6221812;28;20072;-75
2022/11/13 00:26:27;;;;;;;10.50;4.63;;;;;;;5.00;100.00;102611.63;6221586;28;20489;-74
2022/11/13 00:29:29;;;;;;;6.75;4.35;;;;;;;4.97;100.00;102606.41;6221811;28;20046;-75
2022/11/13 00:32:30;;;;;;;8.63;4.68;;;;;;;4.95;100.00;102609.88;6221503;28;20053;-74
2022/11/13 00:35:32;;;;;;;8.90;3.78;;;;;;;4.94;100.00;102609.00;6221136;28;20061;-75
2022/11/13 00:38:34;;;;;;;8.15;4.15;;;;;;;4.92;100.00;102607.28;6221621;28;20053;-74
2022/11/13 00:41:36;;;;;;;8.07;4.28;;;;;;;4.88;100.00;102611.63;6220975;28;20054;-77
2022/11/13 00:44:38;;;;;;;8.00;4.03;;;;;;;4.84;100.00;102607.28;6221265;28;20041;-74
2022/11/13 00:47:39;;;;;;;12.90;4.70;;;;;;;4.85;100.00;102603.78;6221396;28;20061;-75
2022/11/13 00:50:41;;;;;;;7.22;4.25;;;;;;;4.86;100.00;102599.44;6220960;28;20054;-74
2022/11/13 00:53:42;;;;;;;8.93;3.47;;;;;;;4.86;100.00;102596.84;6220733;28;20506;-73
2022/11/13 00:56:45;;;;;;;6.95;3.17;;;;;;;4.82;100.00;102609.03;6221312;28;20046;-75
2022/11/13 00:59:46;;;;;;;9.57;4.00;;;;;;;4.75;100.00;102597.72;6220866;28;20053;-74
2022/11/13 01:02:48;;;;;;;9.88;4.53;;;;;;;4.74;100.00;102600.31;6221576;28;20054;-75
2022/11/13 01:05:49;;;;;;;9.07;4.63;;;;;;;4.73;100.00;102599.47;6220859;28;20498;-74
2022/11/13 01:08:54;;;;;;;9.80;4.68;;;;;;;4.72;100.00;102591.63;6220347;28;20053;-75
2022/11/13 01:11:57;;;;;;;8.60;4.50;;;;;;;4.73;100.00;102593.38;6220596;28;20506;-74
2022/11/13 01:15:00;;;;;;;10.45;5.03;;;;;;;4.73;100.00;102596.00;6220498;28;20049;-74
2022/11/13 01:18:01;;;;;;;9.43;4.40;;;;;;;4.73;100.00;102594.25;6221218;28;20046;-74
2022/11/13 01:21:04;;;;;;;7.15;3.95;;;;;;;4.68;100.00;102596.00;6208418;23;20058;-74
2022/11/13 01:24:06;;;;;;;8.38;4.40;;;;;;;4.67;100.00;102594.22;6196499;28;20046;-74
2022/11/13 01:27:09;;;;;;;16.95;5.80;;;;;;;4.66;100.00;102600.31;6196590;28;20054;-75
2022/11/13 01:30:11;;;;;;;8.55;4.20;;;;;;;4.68;100.00;102592.50;6176555;28;20426;-73
2022/11/13 01:33:12;;;;;;;9.20;4.90;;;;;;;4.64;100.00;102596.84;6172476;28;20051;-74
2022/11/13 01:36:16;;;;;;;11.30;5.55;;;;;;;4.55;100.00;102592.50;6174043;28;20413;-74
2022/11/13 01:39:18;;;;;;;9.60;4.63;;;;;;;4.48;100.00;102600.28;6204520;28;20050;-74
2022/11/13 01:42:21;;;;;;;6.45;4.40;;;;;;;4.42;100.00;102597.69;6209625;28;20053;-74
2022/11/13 01:46:05;;;;;;;11.30;4.53;;;;;;;4.37;100.00;102597.69;6212227;28;20089;-74
2022/11/13 01:49:20;;;;;;;8.18;4.07;;;;;;;4.35;100.00;102595.91;6192936;28;20047;-74
2022/11/13 01:52:25;;;;;;;11.07;5.47;;;;;;;4.30;100.00;102588.09;6195966;28;20053;-74
2022/11/13 01:55:26;;;;;;;8.13;4.68;;;;;;;4.25;100.00;102593.28;6196169;28;20054;-74
2022/11/13 01:58:29;;;;;;;8.75;3.95;;;;;;;4.24;100.00;102588.09;6196144;28;20510;-75
2022/11/13 02:01:31;;;;;;;8.48;4.30;;;;;;;4.22;100.00;102595.88;6210409;28;20049;-74
2022/11/13 02:04:33;;;;;;;9.75;4.07;;;;;;;4.22;100.00;102585.47;6220632;28;20054;-74
2022/11/13 02:07:35;;;;;;;8.20;4.47;;;;;;;4.18;100.00;102588.97;6220348;28;20057;-73
2022/11/13 02:10:36;;;;;;;7.93;4.20;;;;;;;4.17;100.00;102588.94;6220189;28;20065;-75
2022/11/13 02:13:39;;;;;;;10.73;4.75;;;;;;;4.13;100.00;102589.78;6220288;28;20053;-74
2022/11/13 02:16:43;;;;;;;9.02;4.68;;;;;;;4.10;100.00;102584.59;6206118;28;20077;-74
2022/11/13 02:19:48;;;;;;;9.80;4.90;;;;;;;4.07;100.00;102583.69;6220739;28;20497;-74
2022/11/13 02:22:56;;;;;;;10.95;4.97;;;;;;;4.06;100.00;102581.97;6225222;28;20054;-73
2022/11/13 02:25:59;;;;;;;11.10;5.10;;;;;;;4.03;100.00;102570.69;6224181;28;20498;-75
2022/11/13 02:29:00;;;;;;;10.23;4.88;;;;;;;4.00;100.00;102574.16;6224654;28;20061;-74
2022/11/13 02:32:02;;;;;;;10.10;4.22;;;;;;;3.94;100.00;102565.44;6224073;28;20053;-74
2022/11/13 02:35:04;;;;;;;9.88;4.65;;;;;;;3.93;100.00;102572.38;6224457;28;20046;-74
2022/11/13 02:38:05;;;;;;;9.82;4.40;;;;;;;3.93;100.00;102566.31;6224362;28;20054;-74
2022/11/13 02:41:08;;;;;;;8.50;4.03;;;;;;;3.94;100.00;102565.44;6223913;28;20054;-75
2022/11/13 02:44:10;;;;;;;11.95;5.20;;;;;;;3.89;100.00;102556.78;6223768;28;20045;-74
2022/11/13 02:47:11;;;;;;;13.75;4.93;;;;;;;3.90;100.00;102559.34;6224089;28;20425;-75
2022/11/13 02:50:13;;;;;;;8.73;4.38;;;;;;;3.87;100.00;102556.78;6223826;28;20065;-73
2022/11/13 02:53:14;;;;;;;8.05;3.85;;;;;;;3.84;100.00;102556.75;6223858;28;20053;-74
2022/11/13 02:56:17;;;;;;;11.73;4.30;;;;;;;3.79;100.00;102556.72;6223720;28;20049;-74
2022/11/13 02:59:18;;;;;;;9.75;4.85;;;;;;;3.80;100.00;102549.78;6223591;28;20053;-73
2022/11/13 03:02:20;;;;;;;9.70;4.45;;;;;;;3.80;100.00;102552.41;6222283;28;20061;-75
2022/11/13 03:05:22;;;;;;;7.50;4.10;;;;;;;3.80;100.00;102550.66;6223448;28;20053;-74
2022/11/13 03:08:24;;;;;;;6.38;3.47;;;;;;;3.78;100.00;102547.19;6223690;28;20050;-74
2022/11/13 03:11:27;;;;;;;10.25;4.13;;;;;;;3.83;100.00;102543.75;6223400;28;20133;-73
2022/11/13 03:14:28;;;;;;;7.28;4.20;;;;;;;3.87;100.00;102537.69;6223274;28;20053;-74
2022/11/13 03:17:31;;;;;;;10.80;4.07;;;;;;;3.90;100.00;102537.69;6223447;28;20056;-73
2022/11/13 03:20:35;;;;;;;8.90;4.30;;;;;;;3.93;100.00;102533.38;6222889;28;20123;-73
2022/11/13 03:23:37;;;;;;;8.68;5.05;;;;;;;3.93;100.00;102533.38;6223327;28;20133;-74
2022/11/13 03:26:40;;;;;;;11.15;3.97;;;;;;;3.96;100.00;102532.53;6222972;28;20486;-75
2022/11/13 03:29:41;;;;;;;8.32;4.47;;;;;;;3.96;100.00;102533.41;6222910;28;20054;-74
2022/11/13 03:32:43;;;;;;;8.65;4.20;;;;;;;3.97;100.00;102529.06;6222010;28;20429;-75
2022/11/13 03:35:44;;;;;;;7.45;4.68;;;;;;;3.94;100.00;102521.22;6222616;28;20065;-74
2022/11/13 03:38:45;;;;;;;6.28;3.78;;;;;;;3.92;100.00;102526.44;6223142;28;20092;-73
2022/11/13 03:41:48;;;;;;;10.55;4.45;;;;;;;3.91;100.00;102526.44;6222458;28;20080;-74
2022/11/13 03:44:50;;;;;;;7.03;3.60;;;;;;;3.86;100.00;102530.75;6222578;28;20048;-74
2022/11/13 03:47:51;;;;;;;7.32;3.85;;;;;;;3.77;100.00;102532.47;6222769;28;20053;-75
2022/11/13 03:50:54;;;;;;;6.18;3.25;;;;;;;3.71;100.00;102527.22;6222245;28;20069;-73
2022/11/13 03:53:56;;;;;;;8.13;4.03;;;;;;;3.67;100.00;102529.81;6222469;28;20061;-73
2022/11/13 03:56:58;;;;;;;7.03;4.10;;;;;;;3.63;100.00;102534.13;6222401;28;20049;-73
2022/11/13 04:00:00;;;;;;;8.50;3.92;;;;;;;3.63;100.00;102531.53;6222195;28;20061;-74
2022/11/13 04:03:01;;;;;;;10.95;4.30;;;;;;;3.60;100.00;102531.53;6222401;28;20490;-73
2022/11/13 04:06:03;;;;;;;6.50;3.60;;;;;;;3.58;100.00;102529.78;6222278;28;20046;-74
2022/11/13 04:09:04;;;;;;;5.70;3.40;;;;;;;3.54;100.00;102532.38;6222130;28;20065;-73
2022/11/13 04:12:07;;;;;;;8.23;4.35;;;;;;;3.51;100.00;102536.69;6221965;28;20049;-75
2022/11/13 04:15:10;;;;;;;6.60;3.67;;;;;;;3.48;100.00;102534.06;6221619;28;20053;-74
2022/11/13 04:18:11;;;;;;;6.82;3.95;;;;;;;3.46;100.00;102525.41;6222529;28;20054;-74
2022/11/13 04:21:12;;;;;;;8.15;3.85;;;;;;;3.43;100.00;102526.25;6221431;28;20058;-74
2022/11/13 04:24:14;;;;;;;8.55;4.05;;;;;;;3.44;100.00;102529.72;6221513;28;20597;-74
2022/11/13 04:27:17;;;;;;;7.63;4.22;;;;;;;3.43;100.00;102520.19;6221958;28;20049;-74
2022/11/13 04:30:19;;;;;;;10.77;4.82;;;;;;;3.41;100.00;102520.19;6221402;28;20046;-73
2022/11/13 04:33:21;;;;;;;9.18;4.60;;;;;;;3.41;100.00;102506.34;6221922;28;20096;-74
2022/11/13 04:36:22;;;;;;;8.18;3.78;;;;;;;3.39;100.00;102506.31;6221139;28;20389;-73
2022/11/13 04:39:24;;;;;;;9.20;4.40;;;;;;;3.40;100.00;102499.38;6221703;28;20054;-73
2022/11/13 04:45:45;;;;;;;8.18;3.78;;;;;;;3.31;100.00;102503.66;6221299;28;20046;-74
2022/11/13 04:48:47;;;;;;;16.35;4.57;;;;;;;3.31;100.00;102502.78;6221392;28;20054;-74
2022/11/13 04:51:49;;;;;;;10.45;3.88;;;;;;;3.28;100.00;102500.19;6221196;28;20054;-75
2022/11/13 04:54:50;;;;;;;8.10;4.50;;;;;;;3.25;100.00;102502.78;6220818;28;20050;-73
2022/11/13 04:57:54;;;;;;;8.20;4.10;;;;;;;3.24;100.00;102490.66;6221532;28;20054;-73
2022/11/13 05:00:55;;;;;;;7.70;4.15;;;;;;;3.23;100.00;102492.38;6220814;28;20061;-74
2022/11/13 05:03:57;;;;;;;7.75;4.63;;;;;;;3.25;100.00;102495.84;6221220;28;20049;-73
2022/11/13 05:06:58;;;;;;;9.18;4.07;;;;;;;3.26;100.00;102504.50;6221360;28;20061;-74
2022/11/13 05:10:00;;;;;;;9.57;4.50;;;;;;;3.23;100.00;102488.91;6220617;28;20497;-74
2022/11/13 05:13:03;;;;;;;8.68;4.22;;;;;;;3.22;100.00;102485.41;6221227;28;20050;-73
2022/11/13 05:16:06;;;;;;;17.08;5.95;;;;;;;3.24;100.00;102493.25;6220424;28;20061;-74
2022/11/13 05:19:08;;;;;;;11.00;5.60;;;;;;;3.22;100.00;102489.75;6220945;28;20054;-73
2022/11/13 05:22:10;;;;;;;11.52;4.43;;;;;;;3.21;100.00;102477.63;6220643;28;20057;-74
2022/11/13 05:25:11;;;;;;;17.55;5.55;;;;;;;3.18;100.00;102485.41;6220751;28;20046;-73
2022/11/13 05:28:14;;;;;;;6.95;4.50;;;;;;;3.15;100.00;102483.66;6220882;28;20057;-73
2022/11/13 05:31:16;;;;;;;12.95;4.72;;;;;;;3.09;100.00;102475.84;6220613;28;20046;-74
2022/11/13 05:34:17;;;;;;;9.00;4.72;;;;;;;3.04;100.00;102478.44;6220458;28;20041;-74
2022/11/13 05:37:19;;;;;;;10.90;4.95;;;;;;;3.01;100.00;102477.53;6220925;28;20061;-74
2022/11/13 05:40:20;;;;;;;8.27;4.25;;;;;;;2.98;100.00;102473.19;6220586;28;20565;-73
2022/11/13 05:43:23;;;;;;;9.55;5.15;;;;;;;2.96;100.00;102464.53;6220393;28;20528;-74
2022/11/13 05:46:27;;;;;;;10.20;4.63;;;;;;;2.96;100.00;102466.25;6220332;28;20096;-73
2022/11/13 05:49:28;;;;;;;8.80;4.40;;;;;;;2.94;100.00;102461.03;6220461;28;20049;-73
2022/11/13 05:52:30;;;;;;;12.15;5.00;;;;;;;2.91;100.00;102450.66;6220472;28;20046;-73
2022/11/13 05:55:31;;;;;;;12.02;4.70;;;;;;;2.91;100.00;102454.97;6222668;28;20050;-74
2022/11/13 05:58:34;;;;;;;8.55;3.90;;;;;;;2.92;100.00;102448.91;6225504;28;20060;-73
2022/11/13 06:01:38;;;;;;;7.75;4.40;;;;;;;2.94;100.00;102437.66;6224866;28;20060;-73
2022/11/13 06:04:39;;;;;;;8.60;4.30;;;;;;;2.92;100.00;102447.19;6225037;28;20050;-74
2022/11/13 06:07:40;;;;;;;11.50;4.32;;;;;;;2.92;100.00;102452.38;6225013;28;20596;-74
2022/11/13 06:10:42;;;;;;;13.95;4.93;;;;;;;2.90;100.00;102446.28;6224925;28;20060;-74
2022/11/13 06:13:45;;;;;;;8.18;4.32;;;;;;;2.88;100.00;102444.56;6224699;28;20056;-74
2022/11/13 06:16:47;;;;;;;6.78;3.90;;;;;;;2.89;100.00;102441.97;6224848;28;20050;-74
2022/11/13 06:19:48;;;;;;;10.07;5.15;;;;;;;2.85;100.00;102435.03;6224335;28;20133;-74
2022/11/13 06:22:49;;;;;;;9.88;4.88;;;;;;;2.84;100.00;102430.69;6224916;28;20084;-74
2022/11/13 06:25:51;;;;;;;10.40;4.50;;;;;;;2.82;100.00;102429.81;6224487;28;20049;-74
2022/11/13 06:28:54;;;;;;;11.85;4.60;;;;;;;2.85;100.00;102434.16;6224469;28;20054;-73
2022/11/13 06:31:55;;;;;;;9.57;4.93;;;;;;;2.89;100.00;102436.78;6224359;28;20057;-73
2022/11/13 06:34:56;;;;;;;12.80;5.18;;;;;;;2.91;100.00;102435.06;6223894;28;20058;-74
2022/11/13 06:37:58;;;;;;;9.40;4.13;;;;;;;2.92;100.00;102426.41;6224602;28;20515;-74
2022/11/13 06:41:00;;;;;;;7.13;4.63;;;;;;;2.93;100.00;102430.75;6223854;28;20046;-73
2022/11/13 06:44:03;;;;;;;8.30;4.72;;;;;;;2.95;100.00;102431.63;6224083;28;20057;-73
2022/11/13 06:47:04;;;;;;;7.30;4.60;;;;;;;2.95;100.00;102435.94;6224186;28;20045;-73
2022/11/13 06:50:07;;;;;;;10.77;4.60;;;;;;;2.98;100.00;102441.16;6219338;28;20042;-74
2022/11/13 06:53:09;;;;;;;8.85;5.70;;;;;;;3.02;100.00;102440.31;6201176;28;20061;-73
2022/11/13 06:56:11;;;;;;;14.20;5.75;;;;;;;3.00;100.00;102429.94;6200579;28;20050;-73
2022/11/13 06:59:13;;;;;;;10.68;5.82;;;;;;;3.00;100.00;102429.94;6200753;28;20675;-74
2022/11/13 07:02:15;;;;;;;12.48;5.63;;;;;;;3.04;100.00;102438.56;6200284;28;20066;-73
2022/11/13 07:05:17;;;;;;;11.98;5.40;;;;;;;3.05;100.00;102448.13;6200179;28;20057;-73
2022/11/13 07:08:19;;;;;;;11.77;5.60;;;;;;;3.06;100.00;102444.66;6199679;28;20054;-73
2022/11/13 07:11:22;;;;;;;15.43;6.57;;;;;;;3.09;100.00;102452.47;6197139;28;20058;-74
2022/11/13 07:14:25;;;;;;;9.77;5.07;;;;;;;3.13;100.00;102445.53;6193083;28;20054;-73
2022/11/13 07:17:28;;;;;;;9.93;5.40;;;;;;;3.16;100.00;102441.25;6185880;28;20046;-74
2022/11/13 07:20:30;;;;;;;12.82;5.15;;;;;;;3.21;100.00;102456.84;6180016;28;20050;-74
2022/11/13 07:23:42;;;;;;;10.32;5.50;;;;;;;3.25;100.00;102451.69;6200218;28;20430;-75
2022/11/13 07:26:43;;;;;;;7.68;4.53;;;;;;;3.30;100.00;102443.91;6200314;28;20050;-72
2022/11/13 07:29:46;;;;;;;9.27;5.18;;;;;;;3.38;100.00;102439.59;6199761;28;20054;-72
2022/11/13 07:32:47;;;;;;;12.18;5.65;;;;;;;3.43;100.00;102447.41;6200018;28;20053;-72
2022/11/13 07:35:49;;;;;;;16.08;6.68;;;;;;;3.52;100.00;102434.44;6186063;28;20042;-72
2022/11/13 07:38:51;;;;;;;15.23;6.82;;;;;;;3.56;100.00;102444.00;6198962;28;20426;-71
2022/11/13 07:41:53;;;;;;;15.95;7.35;;;;;;;3.63;100.00;102444.88;6207229;28;20540;-71
2022/11/13 07:44:56;;;;;;;18.63;8.25;;;;;;;3.65;100.00;102441.44;6223633;28;20054;-71
2022/11/13 07:47:58;;;;;;;14.20;6.55;;;;;;;3.69;100.00;102435.38;6213694;28;20042;-72
2022/11/13 07:51:01;;;;;;;10.23;6.00;;;;;;;3.71;100.00;102428.44;6218042;28;20053;-72
2022/11/13 07:54:02;;;;;;;19.30;6.15;;;;;;;3.74;100.00;102428.44;6223506;28;20052;-72
2022/11/13 07:57:04;;;;;;;11.27;6.10;;;;;;;3.79;100.00;102423.25;6215715;28;20054;-72
2022/11/13 08:00:08;;;;;;;12.90;6.15;;;;;;;3.84;100.00;102412.84;6218823;28;20525;-71
2022/11/13 08:03:13;;;;;;;10.13;5.88;;;;;;;3.86;100.00;102422.41;6223629;28;20060;-72
2022/11/13 08:06:14;;;;;;;14.00;6.15;;;;;;;3.90;100.00;102423.25;6223354;28;20041;-72
2022/11/13 08:09:16;;;;;;;11.07;6.15;;;;;;;3.94;100.00;102417.19;6222743;28;20053;-72
2022/11/13 08:12:17;;;;;;;13.57;6.13;;;;;;;3.94;100.00;102407.66;6198510;28;20115;-72
2022/11/13 08:15:20;;;;;;;13.82;6.47;;;;;;;3.96;100.00;102418.94;6196365;28;20061;-72
2022/11/13 08:18:21;;;;;;;11.90;5.93;;;;;;;3.99;100.00;102415.47;6206999;28;20046;-71
2022/11/13 08:21:23;;;;;;;14.07;6.60;;;;;;;4.01;100.00;102424.16;6222581;28;20046;-72
2022/11/13 08:24:24;;;;;;;12.55;5.85;;;;;;;4.04;100.00;102424.13;6222764;28;20046;-73
2022/11/13 08:27:26;;;;;;;11.90;5.97;;;;;;;4.07;100.00;102421.53;6222944;28;20429;-72
2022/11/13 08:30:29;;;;;;;12.63;6.38;;;;;;;4.12;100.00;102429.34;6222635;28;20060;-72
2022/11/13 08:33:30;;;;;;;17.25;6.45;;;;;;;4.15;100.00;102422.41;6213651;28;20097;-71
2022/11/13 08:36:32;;;;;;;9.57;5.35;;;;;;;4.18;100.00;102426.75;6203046;28;20043;-71
2022/11/13 08:39:34;;;;;;;13.55;7.05;;;;;;;4.19;100.00;102415.50;6210194;28;20517;-70
2022/11/13 08:42:36;;;;;;;15.02;6.88;;;;;;;4.21;100.00;102416.34;6198023;28;20060;-70
2022/11/13 08:45:38;;;;;;;10.48;4.70;;;;;;;4.22;100.00;102403.31;6204821;28;20067;-70
2022/11/13 08:48:40;;;;;;;9.88;5.70;;;;;;;4.22;100.00;102402.47;6203394;28;20049;-70
2022/11/13 08:51:41;;;;;;;12.40;6.97;;;;;;;4.24;100.00;102405.94;6207515;28;20061;-70
2022/11/13 08:54:43;;;;;;;15.18;6.97;;;;;;;4.26;100.00;102399.00;6199441;28;20042;-69
2022/11/13 08:57:44;;;;;;;11.77;6.32;;;;;;;4.28;100.00;102402.47;6190484;28;20502;-70
2022/11/13 09:00:47;;;;;;;14.68;6.90;;;;;;;4.33;100.00;102395.53;6173608;28;20101;-69
2022/11/13 09:03:48;;;;;;;12.55;6.78;;;;;;;4.39;100.00;102408.53;6187592;28;20046;-70
2022/11/13 09:06:50;;;;;;;13.50;6.32;;;;;;;4.43;100.00;102397.25;6198072;28;20056;-71
2022/11/13 09:09:51;;;;;;;14.88;6.80;;;;;;;4.48;100.00;102399.84;6197545;28;20056;-71
2022/11/13 09:12:57;;;;;;;13.02;6.88;;;;;;;4.52;100.00;102404.19;6179109;28;20076;-70
2022/11/13 09:16:01;;;;;;;15.95;8.02;;;;;;;4.53;100.00;102409.38;6173384;28;20043;-71
2022/11/13 09:19:03;;;;;;;14.15;6.65;;;;;;;4.54;100.00;102405.03;6202663;28;20363;-71
2022/11/13 09:22:05;;;;;;;14.13;6.30;;;;;;;4.60;100.00;102407.66;6208633;28;20409;-70
2022/11/13 09:25:07;;;;;;;13.38;6.50;;;;;;;4.68;100.00;102403.28;6221570;28;20060;-71
2022/11/13 09:28:10;;;;;;;16.98;7.22;;;;;;;4.74;100.00;102397.19;6217815;28;20046;-70
2022/11/13 09:31:13;;;;;;;11.98;6.38;;;;;;;4.79;100.00;102395.44;6200939;28;20116;-70
2022/11/13 09:34:15;;;;;;;16.33;7.13;;;;;;;4.89;100.00;102396.28;6202152;28;20422;-70
2022/11/13 09:37:16;;;;;;;16.67;7.28;;;;;;;5.00;100.00;102390.16;6202521;28;20042;-70
2022/11/13 09:40:27;;;;;;;12.82;6.78;;;;;;;5.08;100.00;102390.13;6202184;28;20057;-69
2022/11/13 09:43:34;;;;;;;14.32;7.57;;;;;;;5.16;100.00;102396.16;6202605;28;20055;-70
2022/11/13 09:46:42;;;;;;;18.10;7.35;;;;;;;5.24;100.00;102394.41;6202125;28;20509;-70
2022/11/13 09:49:46;;;;;;;16.38;7.28;;;;;;;5.34;100.00;102397.81;6202000;28;20054;-71
2022/11/13 09:52:50;;;;;;;15.75;7.60;;;;;;;5.44;100.00;102399.50;6202325;28;20054;-71
2022/11/13 09:56:18;;;;;;;14.73;7.53;;;;;;;5.51;100.00;102392.53;6201578;28;20064;-71
2022/11/13 09:59:26;;;;;;;18.17;6.03;;;;;;;5.60;100.00;102389.88;6202343;28;20046;-71
2022/11/13 10:02:43;;;;;;;11.90;6.23;;;;;;;5.63;100.00;102391.56;6201542;28;20046;-70
2022/11/13 10:05:52;;;;;;;14.23;7.97;;;;;;;5.66;100.00;102379.38;6201709;28;20491;-71
2022/11/13 10:08:57;;;;;;;16.25;6.32;;;;;;;5.70;100.00;102369.81;6198638;28;20507;-70
2022/11/13 10:12:05;;;;;;;14.82;6.97;;;;;;;5.78;100.00;102368.88;6201612;28;20050;-69
2022/11/13 10:15:10;;;;;;;17.13;8.05;;;;;;;5.87;100.00;102369.69;6201204;28;20077;-71
2022/11/13 10:18:20;;;;;;;17.15;7.85;;;;;;;5.96;100.00;102380.09;6206764;28;20034;-71
2022/11/13 10:21:31;;;;;;;;;;;;;;;6.01;100.00;102370.47;6208023;28;20057;-70
2022/11/13 10:24:39;;;;;;;14.30;7.03;;;;;;;6.08;100.00;102372.13;6198235;28;19929;-71
2022/11/13 10:27:40;;;;;;;14.68;7.38;;;;;;;6.20;100.00;102361.59;6193315;28;20069;-70
2022/11/13 10:30:42;;;;;;;14.50;7.47;;;;;;;6.30;100.00;102365.84;6200858;28;20054;-71
2022/11/13 10:33:45;;;;;;;19.33;7.35;;;;;;;6.43;100.00;102363.13;6200937;28;20046;-71
2022/11/13 10:37:00;;;;;;;15.00;7.65;;;;;;;6.61;100.00;102357.69;6201281;28;20047;-71
2022/11/13 10:40:02;;;;;;;15.88;7.57;;;;;;;6.86;100.00;102360.91;6200479;28;20425;-70
2022/11/13 10:43:14;;;;;;;12.85;6.85;;;;;;;7.14;100.00;102347.50;6200907;28;20042;-69
2022/11/13 10:46:20;;;;;;;15.07;7.93;;;;;;;7.44;100.00;102349.66;6200659;28;20062;-69
2022/11/13 10:49:27;;;;;;;18.25;7.63;;;;;;;7.71;100.00;102342.28;6202484;28;20050;-71
2022/11/13 10:52:30;;;;;;;18.45;7.75;;;;;;;7.95;100.00;102333.16;6209679;28;20525;-71
2022/11/13 10:55:38;;;;;;;17.83;7.63;;;;;;;8.23;100.00;102334.44;6218148;28;20513;-70
2022/11/13 10:58:40;;;;;;;18.42;7.82;;;;;;;8.55;100.00;102327.75;6200688;28;20050;-71
2022/11/13 11:01:43;;;;;;;13.13;6.78;;;;;;;8.85;100.00;102321.00;6200232;28;20653;-71
2022/11/13 11:04:46;;;;;;;15.07;7.63;;;;;;;9.01;100.00;102306.69;6199998;28;20050;-71
2022/11/13 11:07:47;;;;;;;14.23;7.35;;;;;;;9.15;100.00;102304.63;6212459;28;20057;-71
2022/11/13 11:14:22;;;;;;;12.15;5.68;;;;;;;9.35;100.00;102298.06;6224542;28;20564;-71
2022/11/13 11:17:27;;;;;;;10.90;7.00;;;;;;;9.30;100.00;102292.06;6224431;28;20498;-71
2022/11/13 11:20:44;;;;;;;12.60;6.45;;;;;;;9.11;100.00;102284.63;6224083;28;20046;-71
2022/11/13 11:23:51;;;;;;;12.25;5.88;;;;;;;9.02;100.00;102281.34;6224260;28;20050;-71
2022/11/13 11:26:58;;;;;;;16.90;7.82;;;;;;;8.85;100.00;102284.31;6189267;28;20054;-70
2022/11/13 11:30:04;;;;;;;20.50;6.97;;;;;;;8.72;100.00;102277.59;6175436;28;20092;-71
2022/11/13 11:33:12;;;;;;;15.70;6.60;;;;;;;8.75;100.00;102272.31;6175609;28;20503;-71
2022/11/13 11:36:25;;;;;;;10.57;5.95;;;;;;;8.81;100.00;102272.16;6175380;28;20511;-71
2022/11/13 11:39:32;;;;;;;12.43;6.43;;;;;;;9.00;100.00;102275.28;6175777;28;20061;-71
2022/11/13 11:42:39;;;;;;;11.02;6.70;;;;;;;9.09;100.00;102275.94;6175440;28;20051;-71
2022/11/13 11:45:42;;;;;;;11.95;5.72;;;;;;;9.13;100.00;102277.59;6175324;28;20050;-71
2022/11/13 11:48:44;;;;;;;13.68;6.28;;;;;;;9.17;100.00;102272.25;6175536;28;20058;-71
2022/11/13 11:51:57;;;;;;;13.43;6.32;;;;;;;9.22;100.00;102278.25;6174507;28;20053;-71
2022/11/13 11:55:13;;;;;;;12.73;6.15;;;;;;;9.14;100.00;102270.56;6173325;28;20051;-71
2022/11/13 11:58:26;;;;;;;9.90;5.85;;;;;;;9.03;100.00;102262.06;6172433;28;20054;-71
2022/11/13 12:01:43;;;;;;;11.23;5.93;;;;;;;8.96;100.00;102257.88;6174761;28;20081;-70
2022/11/13 12:04:59;;;;;;;12.73;5.93;;;;;;;8.89;100.00;102265.00;6174973;28;20050;-71
2022/11/13 12:08:13;;;;;;;14.05;6.32;;;;;;;8.76;100.00;102259.16;6175069;28;20065;-71
2022/11/13 12:11:21;;;;;;;18.48;6.50;;;;;;;8.70;100.00;102261.06;6174598;28;20058;-71
2022/11/13 12:14:31;;;;;;;17.00;6.72;;;;;;;8.58;100.00;102262.16;6174608;28;20062;-71
2022/11/13 12:17:48;;;;;;;11.88;6.45;;;;;;;8.47;100.00;102261.53;6174880;28;20047;-71
2022/11/13 12:20:59;;;;;;;16.35;7.15;;;;;;;8.40;100.00;102260.78;6173499;28;20051;-71
2022/11/13 12:24:19;;;;;;;17.15;8.43;;;;;;;8.30;100.00;102262.69;6169987;28;20072;-71
2022/11/13 12:27:30;;;;;;;13.85;6.45;;;;;;;8.22;100.00;102261.13;6172631;28;20050;-71
2022/11/13 12:30:42;;;;;;;13.93;7.28;;;;;;;8.10;100.00;102263.09;6173890;28;20422;-71
2022/11/13 12:33:48;;;;;;;19.15;6.95;;;;;;;8.16;100.00;102250.75;6174294;28;20058;-71
2022/11/13 12:36:51;;;;;;;13.93;6.25;;;;;;;8.23;100.00;102245.38;6174184;28;20419;-71
2022/11/13 12:39:57;;;;;;;17.42;6.97;;;;;;;8.30;100.00;102239.13;6174184;28;20062;-71
2022/11/13 12:43:17;;;;;;;20.05;7.20;;;;;;;8.30;100.00;102238.25;6173704;28;20058;-71
2022/11/13 12:46:19;;;;;;;15.82;6.65;;;;;;;8.27;100.00;102230.47;6170677;28;20593;-71
2022/11/13 12:49:31;;;;;;;19.67;8.07;;;;;;;8.13;100.00;102231.63;6171880;28;20058;-71
2022/11/13 12:52:33;;;;;;;21.77;8.63;;;;;;;8.07;100.00;102238.72;6170306;28;20058;-71
2022/11/13 12:55:39;;;;;;;20.33;8.07;;;;;;;8.05;100.00;102233.50;6172213;28;20051;-71
2022/11/13 12:58:40;;;;;;;20.48;8.13;;;;;;;8.06;100.00;102237.84;6166016;28;20059;-71
2022/11/13 13:01:46;;;;;;;16.55;9.00;;;;;;;8.03;100.00;102239.66;6173419;28;20503;-71
2022/11/13 13:05:01;;;;;;;18.58;8.77;;;;;;;7.98;100.00;102237.13;6173397;28;20462;-70
2022/11/13 13:08:31;;;;;;;27.33;9.30;;;;;;;7.97;100.00;102239.78;6173945;28;20054;-71
2022/11/13 13:11:47;;;;;;;18.98;9.38;;;;;;;7.97;100.00;102234.53;6173578;28;20054;-71
2022/11/13 13:15:03;;;;;;;19.65;8.15;;;;;;;8.00;100.00;102232.75;6173545;28;20054;-71
2022/11/13 13:18:10;;;;;;;21.58;8.15;;;;;;;8.02;100.00;102222.22;6173695;28;20395;-71
2022/11/13 13:21:13;;;;;;;20.08;8.77;;;;;;;7.89;100.00;102216.34;6172848;28;20050;-71
2022/11/13 13:24:29;;;;;;;21.65;8.32;;;;;;;7.82;100.00;102218.22;6167943;28;20046;-71
2022/11/13 13:27:36;;;;;;;18.80;8.15;;;;;;;7.83;100.00;102230.41;6173420;28;20051;-73
2022/11/13 13:30:51;;;;;;;19.05;8.20;;;;;;;7.83;100.00;102230.41;6172964;28;20051;-73
2022/11/13 13:34:05;;;;;;;17.50;7.72;;;;;;;7.81;100.00;102232.22;6149274;28;20051;-73
2022/11/13 13:37:20;;;;;;;19.55;8.32;;;;;;;7.71;100.00;102232.38;6148299;29;20043;-73
2022/11/13 13:40:34;;;;;;;17.27;7.32;;;;;;;7.64;100.00;102229.03;6149161;28;20055;-72
2022/11/13 13:43:51;;;;;;;21.83;8.57;;;;;;;7.55;100.00;102218.72;6165524;28;20183;-72
2022/11/13 13:46:56;;;;;;;29.10;10.07;;;;;;;7.45;100.00;102223.25;6149565;28;20055;-73
2022/11/13 13:49:57;;;;;;;24.52;9.48;;;;;;;7.40;100.00;102216.34;6148949;28;20062;-73
2022/11/13 13:53:00;;;;;;;36.22;13.10;;;;;;;7.33;100.00;102219.06;6149385;29;20059;-73
2022/11/13 13:56:04;;;;;;;29.52;11.73;;;;;;;7.23;100.00;102216.63;6149204;28;20047;-73
2022/11/13 13:59:15;;;;;;;36.30;10.75;;;;;;;7.20;100.00;102214.06;6149341;28;20047;-73
2022/11/13 14:02:18;;;;;;;22.10;9.05;;;;;;;7.18;100.00;102224.56;6148964;28;20507;-72
2022/11/13 14:05:28;;;;;;;26.08;9.98;;;;;;;7.14;100.00;102212.41;6149114;29;20055;-73
2022/11/13 14:08:30;;;;;;;23.02;9.20;;;;;;;7.11;100.00;102195.00;6149203;29;20044;-73
2022/11/13 14:11:31;;;;;;;18.85;8.48;;;;;;;7.10;100.00;102198.53;6148905;28;20047;-73
2022/11/13 14:14:34;;;;;;;18.27;8.40;;;;;;;7.06;100.00;102207.28;6148742;28;20526;-73
2022/11/13 14:17:38;;;;;;;29.55;9.63;;;;;;;7.07;100.00;102203.78;6153026;29;20043;-73